Time;durP1;ratioP1;P1;durP2;ratioP2;P2;SDS_P1;SDS_P2;PMS_P1;PMS_P2;Temp;Humidity;BMP_temperature;BMP_pressure;BME280_temperature;BME280_humidity;BME280_pressure;Samples;Min_cycle;Max_cycle;Signal;HPM_P1;HPM_P2
2023/07/24 00:00:12;;;;;;;;;;;18.20;99.90;;;;;;5052407;28;19991;-47
2023/07/24 00:02:38;;;;;;;;;;;18.20;99.90;;;;;;5052990;28;19995;-49
2023/07/24 00:05:03;;;;;;;;;;;18.20;99.90;;;;;;5052495;28;19920;-49
2023/07/24 00:07:29;;;;;;;;;;;18.20;99.90;;;;;;5053093;28;19917;-48
2023/07/24 00:09:55;;;;;;;;;;;18.20;99.90;;;;;;5052393;28;19921;-49
2023/07/24 00:12:20;;;;;;;;;;;18.10;99.90;;;;;;5052468;28;19917;-47
2023/07/24 00:14:46;;;;;;;;;;;18.10;99.90;;;;;;5057939;28;20127;-49
2023/07/24 00:17:11;;;;;;;;;;;18.10;99.90;;;;;;5052330;28;19916;-49
2023/07/24 00:19:37;;;;;;;;;;;18.00;99.90;;;;;;5052354;28;19920;-49
2023/07/24 00:22:02;;;;;;;;;;;18.00;99.90;;;;;;5050100;28;20393;-48
2023/07/24 00:24:29;;;;;;;;;;;18.00;99.90;;;;;;5048556;28;19916;-49
2023/07/24 00:26:54;;;;;;;;;;;17.90;99.90;;;;;;5052007;28;19962;-48
2023/07/24 00:29:20;;;;;;;;;;;17.90;99.90;;;;;;5051738;28;19921;-47
2023/07/24 00:31:45;;;;;;;;;;;17.90;99.90;;;;;;5052042;28;19921;-48
2023/07/24 00:34:11;;;;;;;;;;;17.90;99.90;;;;;;5047764;28;19917;-49
2023/07/24 00:36:37;;;;;;;;;;;17.90;99.90;;;;;;5051576;28;19920;-49
2023/07/24 00:39:02;;;;;;;;;;;17.90;99.90;;;;;;5052138;28;19979;-48
2023/07/24 00:41:28;;;;;;;;;;;17.90;99.90;;;;;;5052049;28;20004;-49
2023/07/24 00:43:53;;;;;;;;;;;17.90;99.90;;;;;;5051234;28;19959;-49
2023/07/24 00:46:19;;;;;;;;;;;17.80;99.90;;;;;;5050997;28;19979;-47
2023/07/24 00:48:44;;;;;;;;;;;17.90;99.90;;;;;;5052044;28;19962;-49
2023/07/24 00:51:10;;;;;;;;;;;17.90;99.90;;;;;;5051078;28;20381;-47
2023/07/24 00:53:35;;;;;;;;;;;17.90;99.90;;;;;;5051221;28;19916;-50
2023/07/24 00:56:01;;;;;;;;;;;17.90;99.90;;;;;;5051343;28;19917;-49
2023/07/24 00:58:27;;;;;;;;;;;17.90;99.90;;;;;;5051233;28;20019;-49
2023/07/24 01:00:53;;;;;;;;;;;17.90;99.90;;;;;;5051907;28;19963;-49
2023/07/24 01:03:19;;;;;;;;;;;17.90;99.90;;;;;;5051673;28;19920;-47
2023/07/24 01:05:44;;;;;;;;;;;17.80;99.90;;;;;;5051367;28;19924;-47
2023/07/24 01:08:10;;;;;;;;;;;17.80;99.90;;;;;;5051443;28;19917;-47
2023/07/24 01:10:35;;;;;;;;;;;17.80;99.90;;;;;;5051549;28;19928;-47
2023/07/24 01:13:01;;;;;;;;;;;17.70;99.90;;;;;;5050886;28;20271;-49
2023/07/24 01:15:34;;;;;;;;;;;17.80;99.90;;;;;;5051103;28;19963;-47
2023/07/24 01:18:00;;;;;;;;;;;17.70;99.90;;;;;;5051505;28;19917;-49
2023/07/24 01:20:28;;;;;;;;;;;17.70;99.90;;;;;;5055618;28;19962;-49
2023/07/24 01:23:12;;;;;;;;;;;17.70;99.90;;;;;;5051384;28;19925;-49
2023/07/24 01:25:54;;;;;;;;;;;17.70;99.90;;;;;;5050478;28;19924;-49
2023/07/24 01:28:20;;;;;;;;;;;17.60;99.90;;;;;;5045029;28;19917;-48
2023/07/24 01:30:45;;;;;;;;;;;17.60;99.90;;;;;;5050319;28;20271;-47
2023/07/24 01:33:11;;;;;;;;;;;17.60;99.90;;;;;;5050864;28;19916;-48
2023/07/24 01:35:37;;;;;;;;;;;17.60;99.90;;;;;;5050714;28;19916;-47
2023/07/24 01:38:03;;;;;;;;;;;17.60;99.90;;;;;;5050555;28;20392;-49
2023/07/24 01:40:29;;;;;;;;;;;17.60;99.90;;;;;;5050794;28;19917;-49
2023/07/24 01:42:54;;;;;;;;;;;17.60;99.90;;;;;;5050907;28;19924;-49
2023/07/24 01:45:20;;;;;;;;;;;17.60;99.90;;;;;;5050532;28;19971;-47
2023/07/24 01:47:46;;;;;;;;;;;17.60;99.90;;;;;;5050810;28;19923;-49
2023/07/24 01:50:11;;;;;;;;;;;17.60;99.90;;;;;;5050574;28;20014;-49
2023/07/24 01:52:36;;;;;;;;;;;17.60;99.90;;;;;;5050714;28;19968;-49
2023/07/24 01:55:02;;;;;;;;;;;17.50;99.90;;;;;;5045495;28;20417;-47
2023/07/24 01:57:28;;;;;;;;;;;17.50;99.90;;;;;;5050753;28;19924;-47
2023/07/24 01:59:53;;;;;;;;;;;17.50;99.90;;;;;;5050335;28;20015;-49
2023/07/24 02:02:19;;;;;;;;;;;17.50;99.90;;;;;;5050105;28;20270;-49
2023/07/24 02:04:45;;;;;;;;;;;17.50;99.90;;;;;;5050764;28;20270;-48
2023/07/24 02:07:11;;;;;;;;;;;17.40;99.90;;;;;;5049863;28;20355;-48
2023/07/24 02:09:36;;;;;;;;;;;17.40;99.90;;;;;;5050488;28;20007;-47
2023/07/24 02:12:02;;;;;;;;;;;17.40;99.90;;;;;;5050740;28;19916;-49
2023/07/24 02:14:28;;;;;;;;;;;17.40;99.90;;;;;;5050544;28;20007;-48
2023/07/24 02:16:53;;;;;;;;;;;17.40;99.90;;;;;;5050143;28;19932;-49
2023/07/24 02:19:19;;;;;;;;;;;17.40;99.90;;;;;;5049894;28;19917;-49
2023/07/24 02:21:44;;;;;;;;;;;17.40;99.90;;;;;;5048728;28;19920;-49
2023/07/24 02:24:10;;;;;;;;;;;17.40;99.90;;;;;;5049960;28;19975;-51
2023/07/24 02:26:35;;;;;;;;;;;17.30;99.90;;;;;;5050158;28;19923;-49
2023/07/24 02:29:01;;;;;;;;;;;17.30;99.90;;;;;;5050284;28;19917;-48
2023/07/24 02:31:26;;;;;;;;;;;17.30;99.90;;;;;;5050095;28;19921;-47
2023/07/24 02:33:52;;;;;;;;;;;17.30;99.90;;;;;;5050575;28;19923;-49
2023/07/24 02:36:17;;;;;;;;;;;17.30;99.90;;;;;;5049462;28;20285;-49
2023/07/24 02:38:43;;;;;;;;;;;17.30;99.90;;;;;;5050612;28;19963;-49
2023/07/24 02:41:08;;;;;;;;;;;17.30;99.90;;;;;;5050666;28;19924;-47
2023/07/24 02:43:34;;;;;;;;;;;17.30;99.90;;;;;;5049942;28;20392;-47
2023/07/24 02:46:02;;;;;;;;;;;17.30;99.90;;;;;;5032011;28;19917;-49
2023/07/24 02:48:28;;;;;;;;;;;17.30;99.90;;;;;;5049870;28;19927;-48
2023/07/24 02:50:54;;;;;;;;;;;17.20;99.90;;;;;;5047542;28;19921;-50
2023/07/24 02:53:19;;;;;;;;;;;17.20;99.90;;;;;;5038932;28;20008;-54
2023/07/24 02:55:45;;;;;;;;;;;17.20;99.90;;;;;;5049791;28;19917;-51
2023/07/24 02:58:11;;;;;;;;;;;17.20;99.90;;;;;;5045098;28;20006;-49
2023/07/24 03:00:36;;;;;;;;;;;17.20;99.90;;;;;;5052039;28;19924;-51
2023/07/24 03:03:02;;;;;;;;;;;17.20;99.90;;;;;;5054021;28;19916;-53
2023/07/24 03:05:27;;;;;;;;;;;17.20;99.90;;;;;;5052568;28;20487;-48
2023/07/24 03:07:53;;;;;;;;;;;17.20;99.90;;;;;;5053304;28;19917;-50
2023/07/24 03:10:18;;;;;;;;;;;17.20;99.90;;;;;;5053413;28;21021;-48
2023/07/24 03:12:44;;;;;;;;;;;17.20;99.90;;;;;;5053846;28;19962;-50
2023/07/24 03:15:09;;;;;;;;;;;17.20;99.90;;;;;;5053125;28;19923;-49
2023/07/24 03:17:35;;;;;;;;;;;17.20;99.90;;;;;;5053110;28;19991;-49
2023/07/24 03:20:08;;;;;;;;;;;17.20;99.90;;;;;;5053084;28;20361;-50
2023/07/24 03:22:33;;;;;;;;;;;17.20;99.90;;;;;;5045356;28;19967;-50
2023/07/24 03:24:59;;;;;;;;;;;17.20;99.90;;;;;;5054420;28;19970;-50
2023/07/24 03:27:24;;;;;;;;;;;17.20;99.90;;;;;;5053436;28;19917;-52
2023/07/24 03:29:50;;;;;;;;;;;17.20;99.90;;;;;;5053467;28;19920;-49
2023/07/24 03:32:15;;;;;;;;;;;17.20;99.90;;;;;;5068811;28;19923;-51
2023/07/24 03:34:41;;;;;;;;;;;17.20;99.90;;;;;;5053221;28;19917;-49
2023/07/24 03:37:06;;;;;;;;;;;17.20;99.90;;;;;;5052291;28;20269;-47
2023/07/24 03:39:32;;;;;;;;;;;17.20;99.90;;;;;;5053276;28;19928;-54
2023/07/24 03:41:57;;;;;;;;;;;17.20;99.90;;;;;;5053193;28;20269;-53
2023/07/24 03:44:23;;;;;;;;;;;17.20;99.90;;;;;;5052162;28;19916;-49
2023/07/24 03:46:48;;;;;;;;;;;17.20;99.90;;;;;;5051659;28;20043;-51
2023/07/24 03:49:14;;;;;;;;;;;17.30;99.90;;;;;;5052135;28;19923;-49
2023/07/24 03:51:39;;;;;;;;;;;17.20;99.90;;;;;;5053168;28;19974;-50
2023/07/24 03:54:04;;;;;;;;;;;17.20;99.90;;;;;;5052964;28;20011;-48
2023/07/24 03:56:30;;;;;;;;;;;17.20;99.90;;;;;;5052682;28;19917;-49
2023/07/24 03:58:55;;;;;;;;;;;17.20;99.90;;;;;;5047879;28;19917;-49
2023/07/24 04:01:21;;;;;;;;;;;17.20;99.90;;;;;;5052810;28;19968;-49
2023/07/24 04:03:46;;;;;;;;;;;17.20;99.90;;;;;;5052233;28;20074;-49
2023/07/24 04:06:12;;;;;;;;;;;17.20;99.90;;;;;;5052486;28;20007;-50
2023/07/24 04:08:37;;;;;;;;;;;17.20;99.90;;;;;;5052775;28;19970;-49
2023/07/24 04:11:04;;;;;;;;;;;17.30;99.90;;;;;;5050854;28;19928;-48
2023/07/24 04:13:30;;;;;;;;;;;17.20;99.90;;;;;;5052346;28;19923;-49
2023/07/24 04:15:57;;;;;;;;;;;17.30;99.90;;;;;;5052415;28;20010;-50
2023/07/24 04:18:22;;;;;;;;;;;17.30;99.90;;;;;;5051909;28;20076;-49
2023/07/24 04:20:48;;;;;;;;;;;17.30;99.90;;;;;;5052737;28;19978;-49
2023/07/24 04:23:13;;;;;;;;;;;17.30;99.90;;;;;;5052954;28;20382;-47
2023/07/24 04:25:39;;;;;;;;;;;17.30;99.90;;;;;;5052389;28;19917;-49
2023/07/24 04:28:04;;;;;;;;;;;17.30;99.90;;;;;;5052534;28;19921;-49
2023/07/24 04:30:30;;;;;;;;;;;17.30;99.90;;;;;;5052198;28;19921;-50
2023/07/24 04:32:55;;;;;;;;;;;17.30;99.90;;;;;;5051725;28;19917;-49
2023/07/24 04:35:20;;;;;;;;;;;17.30;99.90;;;;;;5052015;28;20397;-49
2023/07/24 04:37:46;;;;;;;;;;;17.30;99.90;;;;;;5052372;28;20019;-50
2023/07/24 04:40:12;;;;;;;;;;;17.20;99.90;;;;;;5052037;28;19917;-47
2023/07/24 04:42:37;;;;;;;;;;;17.30;99.90;;;;;;5051964;28;19927;-48
2023/07/24 04:45:03;;;;;;;;;;;17.30;99.90;;;;;;5051836;28;19967;-47
2023/07/24 04:47:29;;;;;;;;;;;17.30;99.90;;;;;;5051479;28;20007;-49
2023/07/24 04:49:55;;;;;;;;;;;17.30;99.90;;;;;;5051934;28;20027;-49
2023/07/24 04:52:20;;;;;;;;;;;17.30;99.90;;;;;;5067076;28;19924;-49
2023/07/24 04:54:46;;;;;;;;;;;17.30;99.90;;;;;;5051576;28;20455;-49
2023/07/24 04:57:11;;;;;;;;;;;17.30;99.90;;;;;;5051851;28;19916;-49
2023/07/24 04:59:37;;;;;;;;;;;17.30;99.90;;;;;;5051707;28;20408;-52
2023/07/24 05:02:03;;;;;;;;;;;17.30;99.90;;;;;;5051319;28;20385;-47
2023/07/24 05:04:28;;;;;;;;;;;17.30;99.90;;;;;;5046831;28;20017;-49
2023/07/24 05:06:53;;;;;;;;;;;17.30;99.90;;;;;;5051708;28;20440;-49
2023/07/24 05:09:19;;;;;;;;;;;17.30;99.90;;;;;;5051596;28;19917;-47
2023/07/24 05:11:44;;;;;;;;;;;17.30;99.90;;;;;;5051636;28;20444;-47
2023/07/24 05:14:10;;;;;;;;;;;17.30;99.90;;;;;;5066440;28;19999;-47
2023/07/24 05:16:36;;;;;;;;;;;17.30;99.90;;;;;;5050994;28;19955;-50
2023/07/24 05:19:01;;;;;;;;;;;17.30;99.90;;;;;;5051461;28;20301;-48
2023/07/24 05:21:27;;;;;;;;;;;17.30;99.90;;;;;;5051539;28;19921;-49
2023/07/24 05:23:52;;;;;;;;;;;17.30;99.90;;;;;;5050172;28;19917;-48
2023/07/24 05:26:18;;;;;;;;;;;17.30;99.90;;;;;;5050700;28;19960;-49
2023/07/24 05:28:43;;;;;;;;;;;17.30;99.90;;;;;;5051320;28;20034;-47
2023/07/24 05:31:09;;;;;;;;;;;17.30;99.90;;;;;;5050566;28;20370;-47
2023/07/24 05:33:34;;;;;;;;;;;17.30;99.90;;;;;;5042385;28;19925;-49
2023/07/24 05:36:01;;;;;;;;;;;17.30;99.90;;;;;;5043096;28;19939;-49
2023/07/24 05:38:27;;;;;;;;;;;17.30;99.90;;;;;;5049838;28;20352;-49
2023/07/24 05:40:59;;;;;;;;;;;17.30;99.90;;;;;;5051011;28;19916;-49
2023/07/24 05:43:24;;;;;;;;;;;17.30;99.90;;;;;;5054635;28;19917;-49
2023/07/24 05:45:51;;;;;;;;;;;17.40;99.90;;;;;;5050239;28;19916;-49
2023/07/24 05:48:16;;;;;;;;;;;17.40;99.90;;;;;;5050829;28;19920;-47
2023/07/24 05:50:42;;;;;;;;;;;17.40;99.90;;;;;;5049577;28;19979;-48
2023/07/24 05:53:07;;;;;;;;;;;17.40;99.90;;;;;;5047526;28;19964;-49
2023/07/24 05:55:33;;;;;;;;;;;17.40;99.90;;;;;;5049649;28;19917;-49
2023/07/24 05:57:58;;;;;;;;;;;17.50;99.90;;;;;;5050730;28;19916;-49
2023/07/24 06:00:24;;;;;;;;;;;17.50;99.90;;;;;;5050324;28;19917;-48
2023/07/24 06:02:49;;;;;;;;;;;17.50;99.90;;;;;;5048588;28;19924;-49
2023/07/24 06:05:15;;;;;;;;;;;17.60;99.90;;;;;;5049663;28;19999;-49
2023/07/24 06:07:40;;;;;;;;;;;17.60;99.90;;;;;;5050131;28;19917;-48
2023/07/24 06:10:06;;;;;;;;;;;17.60;99.90;;;;;;5050588;28;19921;-49
2023/07/24 06:12:31;;;;;;;;;;;17.60;99.90;;;;;;5048751;28;19960;-49
2023/07/24 06:14:57;;;;;;;;;;;17.70;99.90;;;;;;5049768;28;19920;-50
2023/07/24 06:17:22;;;;;;;;;;;17.70;99.90;;;;;;5041341;28;20028;-49
2023/07/24 06:19:48;;;;;;;;;;;17.70;99.90;;;;;;5045762;28;19917;-49
2023/07/24 06:22:13;;;;;;;;;;;17.70;99.90;;;;;;5034567;28;20371;-50
2023/07/24 06:24:39;;;;;;;;;;;17.70;99.90;;;;;;5036548;28;20906;-50
2023/07/24 06:27:06;;;;;;;;;;;17.70;99.90;;;;;;5038321;28;19951;-48
2023/07/24 06:29:32;;;;;;;;;;;17.80;99.90;;;;;;5042691;28;19917;-48
2023/07/24 06:31:57;;;;;;;;;;;17.80;99.90;;;;;;5040489;28;19932;-49
2023/07/24 06:34:23;;;;;;;;;;;17.80;99.90;;;;;;5041431;28;19916;-51
2023/07/24 06:36:48;;;;;;;;;;;17.90;99.90;;;;;;5041767;28;19924;-49
2023/07/24 06:39:14;;;;;;;;;;;17.90;99.90;;;;;;5044574;28;20453;-48
2023/07/24 06:41:39;;;;;;;;;;;18.00;99.90;;;;;;5048313;28;19956;-49
2023/07/24 06:44:05;;;;;;;;;;;18.00;99.90;;;;;;5055074;28;19920;-49
2023/07/24 06:46:30;;;;;;;;;;;18.00;99.90;;;;;;5038462;28;20376;-47
2023/07/24 06:48:56;;;;;;;;;;;18.10;99.90;;;;;;5041669;28;19954;-49
2023/07/24 06:51:21;;;;;;;;;;;18.10;99.90;;;;;;5037609;28;19970;-50
2023/07/24 06:53:47;;;;;;;;;;;18.10;99.90;;;;;;5038394;28;19927;-49
2023/07/24 06:56:13;;;;;;;;;;;18.10;99.90;;;;;;5042125;28;19916;-49
2023/07/24 06:58:39;;;;;;;;;;;18.10;99.90;;;;;;5043148;28;19975;-50
2023/07/24 07:01:07;;;;;;;;;;;18.10;99.90;;;;;;5042026;28;19964;-49
2023/07/24 07:03:34;;;;;;;;;;;18.10;99.90;;;;;;5041391;28;19916;-48
2023/07/24 07:06:00;;;;;;;;;;;18.10;99.90;;;;;;5036759;28;19924;-49
2023/07/24 07:08:26;;;;;;;;;;;18.20;99.90;;;;;;5041597;28;19916;-47
2023/07/24 07:10:58;;;;;;;;;;;18.20;99.90;;;;;;5042830;28;19928;-49
2023/07/24 07:13:24;;;;;;;;;;;18.20;99.90;;;;;;5040704;28;19983;-48
2023/07/24 07:15:49;;;;;;;;;;;18.30;99.90;;;;;;5041776;28;20546;-49
2023/07/24 07:18:15;;;;;;;;;;;18.30;99.90;;;;;;5036499;28;19917;-50
2023/07/24 07:20:47;;;;;;;;;;;18.30;99.90;;;;;;5041232;28;19925;-49
2023/07/24 07:23:12;;;;;;;;;;;18.30;99.90;;;;;;5039738;28;19924;-49
2023/07/24 07:25:38;;;;;;;;;;;18.30;99.90;;;;;;5042734;28;19916;-48
2023/07/24 07:28:03;;;;;;;;;;;18.40;99.90;;;;;;5040188;28;19982;-49
2023/07/24 07:30:29;;;;;;;;;;;18.30;99.90;;;;;;5040884;28;19925;-48
2023/07/24 07:32:54;;;;;;;;;;;18.30;99.90;;;;;;5038573;28;19921;-49
2023/07/24 07:35:19;;;;;;;;;;;18.30;99.90;;;;;;5045175;28;20274;-47
2023/07/24 07:37:45;;;;;;;;;;;18.40;99.90;;;;;;5041726;28;19967;-47
2023/07/24 07:40:11;;;;;;;;;;;18.50;99.90;;;;;;5040289;28;19990;-50
2023/07/24 07:42:36;;;;;;;;;;;18.60;99.90;;;;;;5041095;28;19923;-49
2023/07/24 07:45:02;;;;;;;;;;;18.60;99.90;;;;;;5039738;28;19920;-50
2023/07/24 07:47:27;;;;;;;;;;;18.60;99.90;;;;;;5033740;28;19924;-49
2023/07/24 07:49:53;;;;;;;;;;;18.60;99.90;;;;;;5037225;28;19917;-48
2023/07/24 07:52:20;;;;;;;;;;;18.70;99.90;;;;;;5043168;28;20285;-48
2023/07/24 07:54:46;;;;;;;;;;;18.80;99.90;;;;;;5035580;28;20003;-50
2023/07/24 07:57:12;;;;;;;;;;;18.80;99.90;;;;;;5038596;28;19924;-47
2023/07/24 07:59:37;;;;;;;;;;;18.90;99.90;;;;;;5032061;28;19924;-47
2023/07/24 08:02:03;;;;;;;;;;;18.90;99.90;;;;;;5038994;28;20003;-49
2023/07/24 08:04:28;;;;;;;;;;;18.90;99.90;;;;;;5038369;28;19971;-49
2023/07/24 08:06:54;;;;;;;;;;;18.90;99.90;;;;;;5039657;28;19921;-49
2023/07/24 08:09:21;;;;;;;;;;;18.90;99.90;;;;;;5037282;28;19917;-48
2023/07/24 08:11:47;;;;;;;;;;;19.10;99.90;;;;;;5038111;28;20784;-48
2023/07/24 08:14:12;;;;;;;;;;;19.20;99.90;;;;;;5038938;28;19917;-47
2023/07/24 08:16:38;;;;;;;;;;;19.40;99.90;;;;;;5038714;28;19924;-47
2023/07/24 08:19:03;;;;;;;;;;;19.50;99.90;;;;;;5040140;28;19970;-48
2023/07/24 08:21:29;;;;;;;;;;;19.50;99.90;;;;;;5040765;28;20007;-49
2023/07/24 08:23:54;;;;;;;;;;;19.50;99.90;;;;;;5037714;28;19924;-48
2023/07/24 08:26:20;;;;;;;;;;;19.50;99.90;;;;;;5040754;28;19917;-47
2023/07/24 08:28:45;;;;;;;;;;;19.50;99.90;;;;;;5039765;28;19943;-49
2023/07/24 08:31:11;;;;;;;;;;;19.60;99.90;;;;;;5036888;28;19925;-48
2023/07/24 08:33:36;;;;;;;;;;;19.60;99.90;;;;;;5037756;28;19932;-49
2023/07/24 08:36:06;;;;;;;;;;;19.70;99.90;;;;;;5038504;28;20034;-49
2023/07/24 08:38:32;;;;;;;;;;;19.70;99.90;;;;;;5039173;28;20597;-48
2023/07/24 08:41:02;;;;;;;;;;;19.70;99.90;;;;;;5037575;28;19921;-47
2023/07/24 08:43:29;;;;;;;;;;;19.70;99.90;;;;;;5036233;28;19979;-49
2023/07/24 08:45:55;;;;;;;;;;;19.60;99.90;;;;;;5041190;28;19932;-49
2023/07/24 08:48:21;;;;;;;;;;;19.70;99.90;;;;;;5037681;28;20010;-48
2023/07/24 08:50:47;;;;;;;;;;;19.70;99.90;;;;;;5040536;28;20382;-47
2023/07/24 08:53:13;;;;;;;;;;;19.70;99.90;;;;;;5041034;28;19916;-48
2023/07/24 08:55:39;;;;;;;;;;;19.60;99.90;;;;;;5040500;28;19917;-47
2023/07/24 08:58:06;;;;;;;;;;;19.80;99.90;;;;;;5038786;28;19917;-49
2023/07/24 09:00:32;;;;;;;;;;;19.90;99.90;;;;;;5037088;28;20464;-48
2023/07/24 09:02:57;;;;;;;;;;;20.00;99.90;;;;;;5036814;28;20003;-48
2023/07/24 09:05:23;;;;;;;;;;;20.10;99.90;;;;;;5037937;28;20059;-49
2023/07/24 09:07:48;;;;;;;;;;;20.10;99.90;;;;;;5036726;28;19917;-52
2023/07/24 09:10:14;;;;;;;;;;;20.10;99.90;;;;;;5039065;28;20004;-49
2023/07/24 09:12:41;;;;;;;;;;;20.10;99.90;;;;;;5038149;28;19928;-53
2023/07/24 09:15:07;;;;;;;;;;;20.10;99.90;;;;;;5039239;28;19963;-48
2023/07/24 09:17:32;;;;;;;;;;;20.20;99.90;;;;;;5038728;28;19994;-49
2023/07/24 09:19:58;;;;;;;;;;;20.20;99.90;;;;;;5037244;28;19921;-53
2023/07/24 09:22:26;;;;;;;;;;;20.30;99.90;;;;;;5035395;28;20125;-54
2023/07/24 09:24:52;;;;;;;;;;;20.40;99.90;;;;;;5035201;28;19931;-53
2023/07/24 09:27:19;;;;;;;;;;;20.60;99.90;;;;;;5037714;28;19916;-54
2023/07/24 09:29:45;;;;;;;;;;;20.70;99.90;;;;;;5040392;28;19936;-50
2023/07/24 09:32:20;;;;;;;;;;;20.90;99.90;;;;;;5036529;28;19967;-51
2023/07/24 09:34:47;;;;;;;;;;;21.10;99.90;;;;;;5035620;28;19924;-56
2023/07/24 09:37:22;;;;;;;;;;;21.20;99.90;;;;;;5041120;28;19955;-54
2023/07/24 09:39:47;;;;;;;;;;;21.30;99.90;;;;;;5033598;28;20193;-54
2023/07/24 09:42:13;;;;;;;;;;;21.40;99.90;;;;;;5039458;28;20006;-55
2023/07/24 09:44:38;;;;;;;;;;;21.40;99.90;;;;;;5037185;28;20002;-53
2023/07/24 09:47:04;;;;;;;;;;;21.40;99.90;;;;;;5036440;28;19928;-55
2023/07/24 09:49:30;;;;;;;;;;;21.40;99.90;;;;;;5038517;28;19970;-53
2023/07/24 09:51:57;;;;;;;;;;;21.40;99.90;;;;;;5037309;28;19926;-52
2023/07/24 09:54:25;;;;;;;;;;;21.50;99.90;;;;;;5036610;28;20148;-55
2023/07/24 09:56:51;;;;;;;;;;;21.50;99.90;;;;;;5033764;28;19917;-53
2023/07/24 09:59:17;;;;;;;;;;;21.60;99.90;;;;;;5031350;28;20293;-50
2023/07/24 10:01:43;;;;;;;;;;;21.60;99.90;;;;;;5036554;28;19916;-52
2023/07/24 10:04:09;;;;;;;;;;;21.60;99.90;;;;;;5036353;28;20382;-53
2023/07/24 10:06:34;;;;;;;;;;;21.60;99.90;;;;;;5036114;28;19923;-53
2023/07/24 10:09:00;;;;;;;;;;;21.70;99.90;;;;;;5039077;28;19917;-52
2023/07/24 10:11:26;;;;;;;;;;;21.70;99.90;;;;;;5043598;28;20608;-52
2023/07/24 10:13:52;;;;;;;;;;;21.60;99.90;;;;;;5033400;28;19924;-54
2023/07/24 10:16:17;;;;;;;;;;;21.60;99.90;;;;;;5037190;28;19921;-55
2023/07/24 10:18:44;;;;;;;;;;;21.50;99.90;;;;;;5034356;28;20420;-53
2023/07/24 10:21:11;;;;;;;;;;;21.60;99.90;;;;;;5034113;28;19923;-53
2023/07/24 10:23:37;;;;;;;;;;;21.60;99.90;;;;;;5035804;28;19921;-52
2023/07/24 10:26:04;;;;;;;;;;;21.70;99.90;;;;;;5039690;28;19917;-52
2023/07/24 10:28:31;;;;;;;;;;;21.70;99.90;;;;;;5038822;28;19917;-55
2023/07/24 10:30:57;;;;;;;;;;;21.70;99.90;;;;;;5036776;28;19931;-51
2023/07/24 10:33:22;;;;;;;;;;;21.80;99.90;;;;;;5037877;28;19917;-51
2023/07/24 10:35:53;;;;;;;;;;;21.90;99.90;;;;;;5030159;28;19937;-52
2023/07/24 10:38:19;;;;;;;;;;;22.00;99.90;;;;;;5035924;28;19928;-54
2023/07/24 10:40:45;;;;;;;;;;;22.00;99.90;;;;;;5034144;28;20298;-50
2023/07/24 10:43:12;;;;;;;;;;;22.10;99.90;;;;;;5038068;28;19916;-53
2023/07/24 10:45:51;;;;;;;;;;;22.20;99.90;;;;;;5043187;28;20023;-54
2023/07/24 10:48:17;;;;;;;;;;;22.20;99.90;;;;;;5036506;28;19925;-53
2023/07/24 10:50:44;;;;;;;;;;;22.40;99.90;;;;;;5039062;28;19931;-51
2023/07/24 10:53:10;;;;;;;;;;;22.40;99.90;;;;;;5043306;28;19952;-52
2023/07/24 10:55:35;;;;;;;;;;;22.40;99.90;;;;;;5043734;28;19963;-55
2023/07/24 10:58:01;;;;;;;;;;;22.50;99.90;;;;;;5041955;28;19917;-53
2023/07/24 11:00:27;;;;;;;;;;;22.50;99.90;;;;;;5044098;28;20580;-55
2023/07/24 11:02:55;;;;;;;;;;;22.60;99.90;;;;;;5042417;28;19938;-52
2023/07/24 11:05:21;;;;;;;;;;;22.70;99.90;;;;;;5042833;28;19921;-52
2023/07/24 11:07:47;;;;;;;;;;;22.80;99.90;;;;;;5044174;28;19923;-55
2023/07/24 11:10:16;;;;;;;;;;;22.90;99.90;;;;;;5044379;28;19921;-52
2023/07/24 11:12:41;;;;;;;;;;;22.90;99.90;;;;;;5038713;28;19964;-53
2023/07/24 11:15:07;;;;;;;;;;;23.10;99.90;;;;;;5038778;28;20328;-53
2023/07/24 11:17:34;;;;;;;;;;;23.10;99.90;;;;;;5038256;28;20382;-54
2023/07/24 11:20:10;;;;;;;;;;;23.00;99.90;;;;;;5043704;28;20442;-53
2023/07/24 11:22:37;;;;;;;;;;;23.00;99.90;;;;;;5047588;28;19974;-54
2023/07/24 11:25:05;;;;;;;;;;;22.90;99.90;;;;;;5047693;28;19917;-55
2023/07/24 11:27:30;;;;;;;;;;;22.80;99.90;;;;;;5047013;28;19916;-53
2023/07/24 11:29:56;;;;;;;;;;;22.80;99.90;;;;;;5047339;28;19963;-54
2023/07/24 11:32:21;;;;;;;;;;;22.60;99.90;;;;;;5048213;28;19921;-51
2023/07/24 11:34:48;;;;;;;;;;;22.50;99.90;;;;;;5045842;28;19920;-51
2023/07/24 11:37:14;;;;;;;;;;;22.40;99.90;;;;;;5046773;28;19963;-56
2023/07/24 11:39:39;;;;;;;;;;;22.30;99.90;;;;;;5047590;28;20336;-51
2023/07/24 11:42:05;;;;;;;;;;;22.30;99.90;;;;;;5047486;28;19916;-50
2023/07/24 11:44:31;;;;;;;;;;;22.20;99.90;;;;;;5039672;28;19920;-52
2023/07/24 11:47:03;;;;;;;;;;;22.30;99.90;;;;;;5039343;28;19978;-51
2023/07/24 11:49:33;;;;;;;;;;;22.20;99.90;;;;;;5041546;28;19928;-51
2023/07/24 11:52:03;;;;;;;;;;;22.30;99.90;;;;;;5042784;28;19925;-54
2023/07/24 11:54:28;;;;;;;;;;;22.30;99.90;;;;;;5041380;28;20401;-53
2023/07/24 11:56:54;;;;;;;;;;;22.30;99.90;;;;;;5037768;28;19916;-54
2023/07/24 11:59:19;;;;;;;;;;;22.30;99.90;;;;;;5038472;28;19925;-52
2023/07/24 12:01:48;;;;;;;;;;;22.30;99.90;;;;;;5044078;28;19923;-51
2023/07/24 12:04:14;;;;;;;;;;;22.20;99.90;;;;;;5044776;28;19916;-52
2023/07/24 12:06:39;;;;;;;;;;;22.30;99.90;;;;;;5040881;28;20428;-53
2023/07/24 12:09:05;;;;;;;;;;;22.20;99.90;;;;;;5042726;28;19943;-51
2023/07/24 12:11:31;;;;;;;;;;;22.10;99.90;;;;;;5037578;28;19932;-51
2023/07/24 12:13:57;;;;;;;;;;;22.10;99.90;;;;;;5041762;28;19917;-54
2023/07/24 12:16:22;;;;;;;;;;;22.10;99.90;;;;;;5040340;28;19916;-54
2023/07/24 12:18:48;;;;;;;;;;;22.10;99.90;;;;;;5039506;28;19923;-52
2023/07/24 12:21:13;;;;;;;;;;;22.20;99.90;;;;;;5036955;28;19917;-54
2023/07/24 12:23:40;;;;;;;;;;;22.30;99.90;;;;;;5039464;28;19921;-52
2023/07/24 12:26:05;;;;;;;;;;;22.30;99.90;;;;;;5041161;28;20011;-53
2023/07/24 12:28:31;;;;;;;;;;;22.40;99.90;;;;;;5041827;28;20306;-51
2023/07/24 12:30:56;;;;;;;;;;;22.40;99.90;;;;;;5037478;28;19932;-51
2023/07/24 12:33:23;;;;;;;;;;;22.50;99.90;;;;;;5041045;28;19943;-52
2023/07/24 12:35:49;;;;;;;;;;;22.60;99.90;;;;;;5037156;28;19964;-51
2023/07/24 12:40:05;;;;;;;8.83;4.73;;;22.70;99.90;;;;;;5105095;27;20366;-55
2023/07/24 12:42:31;;;;;;;9.25;5.60;;;22.70;99.90;;;;;;5088265;28;20058;-53
2023/07/24 12:44:57;;;;;;;;;;;22.80;99.90;;;;;;5083829;28;20423;-52
2023/07/24 12:47:23;;;;;;;8.63;4.97;;;22.90;99.90;;;;;;5089342;28;20293;-54
2023/07/24 12:49:49;;;;;;;8.80;5.22;;;23.00;99.90;;;;;;5087186;28;20444;-54
2023/07/24 12:52:14;;;;;;;6.07;4.82;;;23.00;99.90;;;;;;5081746;28;20036;-54
2023/07/24 12:54:40;;;;;;;8.38;5.53;;;23.10;99.90;;;;;;5087195;28;20032;-53
2023/07/24 12:57:06;;;;;;;5.55;5.03;;;23.20;99.90;;;;;;5085315;28;20477;-50
2023/07/24 12:59:31;;;;;;;6.82;5.63;;;23.10;99.90;;;;;;5090621;28;20028;-50
2023/07/24 13:01:57;;;;;;;7.35;5.22;;;23.10;99.90;;;;;;5086370;28;20035;-52
2023/07/24 13:04:23;;;;;;;9.65;4.90;;;23.10;99.90;;;;;;5083565;28;21292;-54
2023/07/24 13:06:49;;;;;;;8.15;5.65;;;23.00;99.90;;;;;;5083808;28;20114;-54
2023/07/24 13:09:14;;;;;;;10.25;5.10;;;23.10;99.90;;;;;;5086956;28;20124;-50
2023/07/24 13:11:40;;;;;;;6.32;4.80;;;23.10;99.90;;;;;;5085344;28;20036;-54
2023/07/24 13:14:06;;;;;;;8.80;4.25;;;23.10;99.90;;;;;;5088481;28;20504;-51
2023/07/24 13:16:31;;;;;;;9.77;5.35;;;23.10;99.90;;;;;;5085095;28;20039;-56
2023/07/24 13:18:57;;;;;;;8.70;6.10;;;23.10;99.90;;;;;;5087415;28;20444;-51
2023/07/24 13:21:23;;;;;;;5.32;4.25;;;23.20;99.90;;;;;;5086135;28;20036;-53
2023/07/24 13:23:49;;;;;;;7.20;4.53;;;23.30;99.90;;;;;;5085818;28;20086;-53
2023/07/24 13:26:15;;;;;;;5.03;4.15;;;23.40;99.90;;;;;;5084303;28;20036;-52
2023/07/24 13:28:41;;;;;;;8.00;4.70;;;23.50;99.90;;;;;;5085160;28;20035;-51
2023/07/24 13:31:18;;;;;;;5.78;4.50;;;23.60;99.90;;;;;;5083284;28;20039;-55
2023/07/24 13:33:43;;;;;;;5.28;4.45;;;23.60;99.90;;;;;;5083332;28;20563;-51
2023/07/24 13:36:09;;;;;;;6.88;4.28;;;23.70;99.90;;;;;;5085201;28;20044;-54
2023/07/24 13:38:35;;;;;;;5.28;3.97;;;23.70;99.90;;;;;;5087877;28;20393;-56
2023/07/24 13:41:01;;;;;;;5.63;4.45;;;23.80;99.90;;;;;;5081626;28;20247;-55
2023/07/24 13:43:28;;;;;;;6.30;3.80;;;23.80;99.90;;;;;;5089045;28;20054;-50
2023/07/24 13:45:53;;;;;;;8.60;3.40;;;23.70;99.90;;;;;;5083824;28;20039;-54
2023/07/24 13:48:19;;;;;;;8.38;4.13;;;23.50;99.90;;;;;;5086285;28;20421;-54
2023/07/24 13:50:44;;;;;;;7.55;4.32;;;23.50;99.90;;;;;;5080608;28;20489;-53
2023/07/24 13:53:10;;;;;;;5.38;4.18;;;23.50;99.90;;;;;;5074265;28;20071;-55
2023/07/24 13:55:36;;;;;;;4.95;3.00;;;23.50;99.90;;;;;;5073121;28;20102;-52
2023/07/24 13:58:01;;;;;;;7.53;2.40;;;23.50;99.90;;;;;;5070123;28;20527;-52
2023/07/24 14:00:27;;;;;;;3.95;2.00;;;23.00;99.90;;;;;;5069113;28;20350;-50